RJSM(METAR)
08/13 14:00
METAR RJSM 130500Z 34012KT 9999 FEW020 SCT040 BKN230 30/20 Q1006 RMK
1CU020 3CU040 A2972 MAX WIND 17KT=
戻る
トップページへ戻る
IMOC Co,.Ltd.